sensor_id;sensor_type;location;lat;lon;timestamp;P1;durP1;ratioP1;P2;durP2;ratioP2
3949;SDS011;53057;50.988;6.314;2024-03-23T00:58:40;49.80;;;12.47;;
3949;SDS011;53057;50.988;6.314;2024-03-23T01:08:05;36.07;;;8.90;;
3949;SDS011;53057;50.988;6.314;2024-03-23T01:15:35;28.17;;;7.10;;
3949;SDS011;53057;50.988;6.314;2024-03-23T01:28:45;24.00;;;5.93;;
3949;SDS011;53057;50.988;6.314;2024-03-23T01:31:22;17.40;;;5.67;;
3949;SDS011;53057;50.988;6.314;2024-03-23T01:34:53;18.47;;;5.13;;
3949;SDS011;53057;50.988;6.314;2024-03-23T01:41:48;24.43;;;4.80;;
3949;SDS011;53057;50.988;6.314;2024-03-23T01:45:07;32.47;;;6.00;;
3949;SDS011;53057;50.988;6.314;2024-03-23T01:47:39;33.87;;;6.40;;
3949;SDS011;53057;50.988;6.314;2024-03-23T01:50:14;25.90;;;5.60;;
3949;SDS011;53057;50.988;6.314;2024-03-23T01:52:48;21.50;;;5.23;;
3949;SDS011;53057;50.988;6.314;2024-03-23T01:55:26;29.03;;;7.13;;
3949;SDS011;53057;50.988;6.314;2024-03-23T01:58:03;21.00;;;5.40;;
3949;SDS011;53057;50.988;6.314;2024-03-23T02:00:41;28.40;;;6.13;;
3949;SDS011;53057;50.988;6.314;2024-03-23T02:06:40;20.40;;;6.40;;
3949;SDS011;53057;50.988;6.314;2024-03-23T02:09:19;34.13;;;6.63;;
3949;SDS011;53057;50.988;6.314;2024-03-23T02:11:50;23.30;;;6.50;;
3949;SDS011;53057;50.988;6.314;2024-03-23T02:14:17;25.57;;;5.93;;
3949;SDS011;53057;50.988;6.314;2024-03-23T02:16:52;34.53;;;7.43;;
3949;SDS011;53057;50.988;6.314;2024-03-23T02:19:22;15.97;;;6.27;;
3949;SDS011;53057;50.988;6.314;2024-03-23T02:21:57;31.43;;;7.77;;
3949;SDS011;53057;50.988;6.314;2024-03-23T02:25:37;21.47;;;5.93;;
3949;SDS011;53057;50.988;6.314;2024-03-23T02:28:24;23.17;;;6.87;;
3949;SDS011;53057;50.988;6.314;2024-03-23T02:30:51;19.73;;;6.40;;
3949;SDS011;53057;50.988;6.314;2024-03-23T02:33:17;24.50;;;7.70;;
3949;SDS011;53057;50.988;6.314;2024-03-23T02:38:52;25.47;;;8.97;;
3949;SDS011;53057;50.988;6.314;2024-03-23T02:41:27;27.47;;;8.67;;
3949;SDS011;53057;50.988;6.314;2024-03-23T02:43:58;33.97;;;8.47;;
3949;SDS011;53057;50.988;6.314;2024-03-23T02:46:24;19.40;;;6.57;;
3949;SDS011;53057;50.988;6.314;2024-03-23T02:48:53;26.97;;;8.00;;
3949;SDS011;53057;50.988;6.314;2024-03-23T02:51:46;27.03;;;7.10;;
3949;SDS011;53057;50.988;6.314;2024-03-23T02:54:14;24.77;;;7.73;;
3949;SDS011;53057;50.988;6.314;2024-03-23T02:56:58;32.77;;;6.80;;
3949;SDS011;53057;50.988;6.314;2024-03-23T03:03:55;26.13;;;5.70;;
3949;SDS011;53057;50.988;6.314;2024-03-23T03:06:27;28.53;;;6.90;;
3949;SDS011;53057;50.988;6.314;2024-03-23T03:08:54;20.63;;;7.83;;
3949;SDS011;53057;50.988;6.314;2024-03-23T03:11:20;27.93;;;7.23;;
3949;SDS011;53057;50.988;6.314;2024-03-23T03:13:47;23.07;;;7.23;;
3949;SDS011;53057;50.988;6.314;2024-03-23T03:16:13;24.17;;;7.77;;
3949;SDS011;53057;50.988;6.314;2024-03-23T03:18:40;19.07;;;5.63;;
3949;SDS011;53057;50.988;6.314;2024-03-23T03:21:06;26.97;;;6.30;;
3949;SDS011;53057;50.988;6.314;2024-03-23T03:23:39;19.77;;;6.03;;
3949;SDS011;53057;50.988;6.314;2024-03-23T03:26:05;30.03;;;7.30;;
3949;SDS011;53057;50.988;6.314;2024-03-23T03:28:31;28.47;;;9.23;;
3949;SDS011;53057;50.988;6.314;2024-03-23T03:30:59;32.90;;;6.23;;
3949;SDS011;53057;50.988;6.314;2024-03-23T03:33:26;30.37;;;7.03;;
3949;SDS011;53057;50.988;6.314;2024-03-23T03:35:53;20.80;;;7.20;;
3949;SDS011;53057;50.988;6.314;2024-03-23T03:38:19;24.13;;;6.87;;
3949;SDS011;53057;50.988;6.314;2024-03-23T03:40:53;42.13;;;8.77;;
3949;SDS011;53057;50.988;6.314;2024-03-23T03:44:54;45.23;;;9.77;;
3949;SDS011;53057;50.988;6.314;2024-03-23T03:52:01;19.33;;;6.73;;
3949;SDS011;53057;50.988;6.314;2024-03-23T03:54:49;19.53;;;6.63;;
3949;SDS011;53057;50.988;6.314;2024-03-23T04:25:15;29.47;;;5.90;;
3949;SDS011;53057;50.988;6.314;2024-03-23T04:27:41;27.20;;;8.13;;
3949;SDS011;53057;50.988;6.314;2024-03-23T04:30:08;27.67;;;8.00;;
3949;SDS011;53057;50.988;6.314;2024-03-23T04:32:38;18.60;;;6.07;;
3949;SDS011;53057;50.988;6.314;2024-03-23T04:35:04;28.13;;;6.43;;
3949;SDS011;53057;50.988;6.314;2024-03-23T04:37:36;22.10;;;5.10;;
3949;SDS011;53057;50.988;6.314;2024-03-23T04:40:03;31.70;;;7.03;;
3949;SDS011;53057;50.988;6.314;2024-03-23T04:42:30;28.23;;;7.27;;
3949;SDS011;53057;50.988;6.314;2024-03-23T04:44:57;17.40;;;4.83;;
3949;SDS011;53057;50.988;6.314;2024-03-23T04:47:23;26.07;;;5.63;;
3949;SDS011;53057;50.988;6.314;2024-03-23T04:49:49;18.87;;;5.63;;
3949;SDS011;53057;50.988;6.314;2024-03-23T04:52:16;30.03;;;5.67;;
3949;SDS011;53057;50.988;6.314;2024-03-23T04:54:42;34.33;;;6.20;;
3949;SDS011;53057;50.988;6.314;2024-03-23T04:57:08;31.13;;;6.23;;
3949;SDS011;53057;50.988;6.314;2024-03-23T04:59:34;27.67;;;6.00;;
3949;SDS011;53057;50.988;6.314;2024-03-23T05:02:00;23.57;;;4.87;;
3949;SDS011;53057;50.988;6.314;2024-03-23T05:04:27;23.10;;;5.90;;
3949;SDS011;53057;50.988;6.314;2024-03-23T05:06:54;19.03;;;6.20;;
3949;SDS011;53057;50.988;6.314;2024-03-23T05:09:21;37.17;;;6.93;;
3949;SDS011;53057;50.988;6.314;2024-03-23T05:11:48;26.27;;;5.70;;
3949;SDS011;53057;50.988;6.314;2024-03-23T05:14:14;25.37;;;6.73;;
3949;SDS011;53057;50.988;6.314;2024-03-23T05:16:41;23.10;;;5.97;;
3949;SDS011;53057;50.988;6.314;2024-03-23T05:19:07;17.20;;;5.40;;
3949;SDS011;53057;50.988;6.314;2024-03-23T05:21:34;25.17;;;7.50;;
3949;SDS011;53057;50.988;6.314;2024-03-23T05:24:00;21.03;;;6.37;;
3949;SDS011;53057;50.988;6.314;2024-03-23T05:26:26;21.13;;;6.50;;
3949;SDS011;53057;50.988;6.314;2024-03-23T05:28:53;34.30;;;6.90;;
3949;SDS011;53057;50.988;6.314;2024-03-23T05:31:24;30.13;;;7.30;;
3949;SDS011;53057;50.988;6.314;2024-03-23T05:33:51;28.70;;;6.97;;
3949;SDS011;53057;50.988;6.314;2024-03-23T05:36:17;25.83;;;8.00;;
3949;SDS011;53057;50.988;6.314;2024-03-23T05:38:43;28.70;;;8.33;;
3949;SDS011;53057;50.988;6.314;2024-03-23T05:41:09;38.20;;;10.47;;
3949;SDS011;53057;50.988;6.314;2024-03-23T05:43:35;36.07;;;8.07;;
3949;SDS011;53057;50.988;6.314;2024-03-23T05:46:02;39.23;;;8.70;;
3949;SDS011;53057;50.988;6.314;2024-03-23T05:48:29;20.30;;;7.50;;
3949;SDS011;53057;50.988;6.314;2024-03-23T05:50:56;26.37;;;11.90;;
3949;SDS011;53057;50.988;6.314;2024-03-23T05:53:23;42.67;;;11.30;;
3949;SDS011;53057;50.988;6.314;2024-03-23T05:55:50;24.33;;;10.23;;
3949;SDS011;53057;50.988;6.314;2024-03-23T05:58:19;25.03;;;8.30;;
3949;SDS011;53057;50.988;6.314;2024-03-23T06:00:46;19.50;;;9.20;;
3949;SDS011;53057;50.988;6.314;2024-03-23T06:03:13;41.57;;;12.23;;
3949;SDS011;53057;50.988;6.314;2024-03-23T06:05:39;42.60;;;10.70;;
3949;SDS011;53057;50.988;6.314;2024-03-23T06:08:05;40.03;;;11.60;;
3949;SDS011;53057;50.988;6.314;2024-03-23T06:10:34;23.97;;;9.43;;
3949;SDS011;53057;50.988;6.314;2024-03-23T06:13:00;24.50;;;9.00;;
3949;SDS011;53057;50.988;6.314;2024-03-23T06:15:26;32.53;;;8.70;;
3949;SDS011;53057;50.988;6.314;2024-03-23T06:17:52;20.17;;;8.40;;
3949;SDS011;53057;50.988;6.314;2024-03-23T06:20:18;15.97;;;7.57;;
3949;SDS011;53057;50.988;6.314;2024-03-23T06:22:48;26.87;;;7.77;;
3949;SDS011;53057;50.988;6.314;2024-03-23T06:25:15;21.53;;;9.70;;
3949;SDS011;53057;50.988;6.314;2024-03-23T06:27:41;16.43;;;7.73;;
3949;SDS011;53057;50.988;6.314;2024-03-23T06:30:07;24.93;;;7.70;;
3949;SDS011;53057;50.988;6.314;2024-03-23T06:32:33;23.80;;;7.13;;
3949;SDS011;53057;50.988;6.314;2024-03-23T06:34:59;20.83;;;8.30;;
3949;SDS011;53057;50.988;6.314;2024-03-23T06:37:25;25.73;;;8.77;;
3949;SDS011;53057;50.988;6.314;2024-03-23T06:39:51;19.63;;;7.97;;
3949;SDS011;53057;50.988;6.314;2024-03-23T06:42:18;26.70;;;8.83;;
3949;SDS011;53057;50.988;6.314;2024-03-23T06:44:44;21.13;;;8.13;;
3949;SDS011;53057;50.988;6.314;2024-03-23T06:47:10;26.20;;;9.27;;
3949;SDS011;53057;50.988;6.314;2024-03-23T06:49:35;26.00;;;9.90;;
3949;SDS011;53057;50.988;6.314;2024-03-23T06:52:01;21.53;;;9.17;;
3949;SDS011;53057;50.988;6.314;2024-03-23T06:54:27;18.03;;;8.50;;
3949;SDS011;53057;50.988;6.314;2024-03-23T06:56:53;17.37;;;7.83;;
3949;SDS011;53057;50.988;6.314;2024-03-23T06:59:20;35.53;;;10.27;;
3949;SDS011;53057;50.988;6.314;2024-03-23T07:01:46;17.47;;;8.20;;
3949;SDS011;53057;50.988;6.314;2024-03-23T07:04:12;22.43;;;11.10;;
3949;SDS011;53057;50.988;6.314;2024-03-23T07:06:44;21.63;;;9.80;;
3949;SDS011;53057;50.988;6.314;2024-03-23T07:09:11;31.37;;;10.17;;
3949;SDS011;53057;50.988;6.314;2024-03-23T07:11:37;14.70;;;8.40;;
3949;SDS011;53057;50.988;6.314;2024-03-23T07:14:04;15.70;;;7.00;;
3949;SDS011;53057;50.988;6.314;2024-03-23T07:16:30;20.93;;;5.30;;
3949;SDS011;53057;50.988;6.314;2024-03-23T07:18:57;12.33;;;5.00;;
3949;SDS011;53057;50.988;6.314;2024-03-23T07:21:24;17.07;;;6.97;;
3949;SDS011;53057;50.988;6.314;2024-03-23T07:23:51;10.70;;;4.80;;
3949;SDS011;53057;50.988;6.314;2024-03-23T07:26:17;15.27;;;3.53;;
3949;SDS011;53057;50.988;6.314;2024-03-23T07:28:45;7.10;;;2.23;;
3949;SDS011;53057;50.988;6.314;2024-03-23T07:31:12;6.70;;;2.57;;
3949;SDS011;53057;50.988;6.314;2024-03-23T07:36:08;10.50;;;2.63;;
3949;SDS011;53057;50.988;6.314;2024-03-23T07:38:35;4.57;;;3.03;;
3949;SDS011;53057;50.988;6.314;2024-03-23T07:41:05;6.80;;;2.37;;
3949;SDS011;53057;50.988;6.314;2024-03-23T07:43:31;4.93;;;2.80;;
3949;SDS011;53057;50.988;6.314;2024-03-23T07:45:57;5.13;;;2.40;;
3949;SDS011;53057;50.988;6.314;2024-03-23T07:48:23;13.63;;;2.70;;
3949;SDS011;53057;50.988;6.314;2024-03-23T07:53:25;11.80;;;5.27;;
3949;SDS011;53057;50.988;6.314;2024-03-23T07:56:01;16.03;;;6.00;;
3949;SDS011;53057;50.988;6.314;2024-03-23T07:58:28;19.37;;;8.30;;
3949;SDS011;53057;50.988;6.314;2024-03-23T08:00:54;17.23;;;9.27;;
3949;SDS011;53057;50.988;6.314;2024-03-23T08:03:21;17.90;;;8.20;;
3949;SDS011;53057;50.988;6.314;2024-03-23T08:05:48;12.57;;;8.90;;
3949;SDS011;53057;50.988;6.314;2024-03-23T08:08:15;18.60;;;8.33;;
3949;SDS011;53057;50.988;6.314;2024-03-23T08:10:50;21.63;;;8.80;;
3949;SDS011;53057;50.988;6.314;2024-03-23T08:13:17;14.67;;;8.00;;
3949;SDS011;53057;50.988;6.314;2024-03-23T08:15:43;23.93;;;7.83;;
3949;SDS011;53057;50.988;6.314;2024-03-23T08:18:10;21.53;;;7.07;;
3949;SDS011;53057;50.988;6.314;2024-03-23T08:20:36;21.60;;;6.60;;
3949;SDS011;53057;50.988;6.314;2024-03-23T08:23:02;20.50;;;8.53;;
3949;SDS011;53057;50.988;6.314;2024-03-23T08:25:30;20.73;;;7.23;;
3949;SDS011;53057;50.988;6.314;2024-03-23T08:27:57;13.80;;;5.23;;
3949;SDS011;53057;50.988;6.314;2024-03-23T08:30:24;22.83;;;7.57;;
3949;SDS011;53057;50.988;6.314;2024-03-23T08:32:50;23.60;;;8.00;;
3949;SDS011;53057;50.988;6.314;2024-03-23T08:35:16;15.80;;;7.43;;
3949;SDS011;53057;50.988;6.314;2024-03-23T08:37:42;23.47;;;8.23;;
3949;SDS011;53057;50.988;6.314;2024-03-23T08:40:08;34.77;;;7.93;;
3949;SDS011;53057;50.988;6.314;2024-03-23T08:42:35;13.30;;;4.20;;
3949;SDS011;53057;50.988;6.314;2024-03-23T08:45:01;21.00;;;5.43;;
3949;SDS011;53057;50.988;6.314;2024-03-23T08:47:27;23.93;;;6.03;;
3949;SDS011;53057;50.988;6.314;2024-03-23T08:49:54;24.10;;;5.80;;
3949;SDS011;53057;50.988;6.314;2024-03-23T08:52:21;15.33;;;5.83;;
3949;SDS011;53057;50.988;6.314;2024-03-23T08:54:49;18.43;;;5.80;;
3949;SDS011;53057;50.988;6.314;2024-03-23T08:57:16;13.70;;;4.50;;
3949;SDS011;53057;50.988;6.314;2024-03-23T08:59:42;21.03;;;6.70;;
3949;SDS011;53057;50.988;6.314;2024-03-23T09:02:08;16.37;;;5.63;;
3949;SDS011;53057;50.988;6.314;2024-03-23T09:04:34;19.63;;;6.57;;
3949;SDS011;53057;50.988;6.314;2024-03-23T09:07:00;21.40;;;4.90;;
3949;SDS011;53057;50.988;6.314;2024-03-23T09:09:26;10.90;;;4.67;;
3949;SDS011;53057;50.988;6.314;2024-03-23T09:11:53;11.57;;;3.60;;
3949;SDS011;53057;50.988;6.314;2024-03-23T09:14:19;8.70;;;4.43;;
3949;SDS011;53057;50.988;6.314;2024-03-23T09:16:45;11.90;;;4.30;;
3949;SDS011;53057;50.988;6.314;2024-03-23T09:19:11;12.87;;;4.37;;
3949;SDS011;53057;50.988;6.314;2024-03-23T09:21:37;20.73;;;5.53;;
3949;SDS011;53057;50.988;6.314;2024-03-23T09:24:03;15.13;;;4.17;;
3949;SDS011;53057;50.988;6.314;2024-03-23T09:26:29;11.40;;;3.87;;
3949;SDS011;53057;50.988;6.314;2024-03-23T09:28:56;13.73;;;3.60;;
3949;SDS011;53057;50.988;6.314;2024-03-23T09:31:22;7.43;;;2.50;;
3949;SDS011;53057;50.988;6.314;2024-03-23T09:33:48;12.50;;;3.30;;
3949;SDS011;53057;50.988;6.314;2024-03-23T09:36:15;16.83;;;3.50;;
3949;SDS011;53057;50.988;6.314;2024-03-23T09:38:41;14.03;;;2.60;;
3949;SDS011;53057;50.988;6.314;2024-03-23T09:41:08;12.70;;;3.30;;
3949;SDS011;53057;50.988;6.314;2024-03-23T09:43:34;9.70;;;2.70;;
3949;SDS011;53057;50.988;6.314;2024-03-23T09:46:03;13.47;;;2.43;;
3949;SDS011;53057;50.988;6.314;2024-03-23T09:48:31;17.83;;;4.37;;
3949;SDS011;53057;50.988;6.314;2024-03-23T09:50:57;11.50;;;3.57;;
3949;SDS011;53057;50.988;6.314;2024-03-23T09:53:23;13.33;;;4.57;;
3949;SDS011;53057;50.988;6.314;2024-03-23T09:55:52;7.00;;;2.83;;
3949;SDS011;53057;50.988;6.314;2024-03-23T09:58:18;11.97;;;3.13;;
3949;SDS011;53057;50.988;6.314;2024-03-23T10:00:44;8.93;;;3.00;;
3949;SDS011;53057;50.988;6.314;2024-03-23T10:03:10;15.70;;;3.07;;
3949;SDS011;53057;50.988;6.314;2024-03-23T10:05:37;7.37;;;3.30;;
3949;SDS011;53057;50.988;6.314;2024-03-23T10:10:41;14.20;;;3.00;;
3949;SDS011;53057;50.988;6.314;2024-03-23T10:13:07;11.87;;;3.73;;
3949;SDS011;53057;50.988;6.314;2024-03-23T10:15:34;18.83;;;2.87;;
3949;SDS011;53057;50.988;6.314;2024-03-23T10:20:41;16.57;;;3.73;;
3949;SDS011;53057;50.988;6.314;2024-03-23T10:23:15;13.30;;;3.50;;
3949;SDS011;53057;50.988;6.314;2024-03-23T10:25:42;13.00;;;4.10;;
3949;SDS011;53057;50.988;6.314;2024-03-23T10:28:08;10.40;;;2.83;;
3949;SDS011;53057;50.988;6.314;2024-03-23T10:30:35;9.10;;;2.70;;
3949;SDS011;53057;50.988;6.314;2024-03-23T10:33:08;12.47;;;3.23;;
3949;SDS011;53057;50.988;6.314;2024-03-23T10:35:34;6.77;;;2.17;;
3949;SDS011;53057;50.988;6.314;2024-03-23T10:38:01;7.63;;;3.43;;
3949;SDS011;53057;50.988;6.314;2024-03-23T10:40:28;5.80;;;1.97;;
3949;SDS011;53057;50.988;6.314;2024-03-23T10:42:56;6.30;;;2.70;;
3949;SDS011;53057;50.988;6.314;2024-03-23T10:45:24;9.70;;;2.70;;
3949;SDS011;53057;50.988;6.314;2024-03-23T10:47:50;8.20;;;2.17;;
3949;SDS011;53057;50.988;6.314;2024-03-23T10:50:17;16.00;;;2.70;;
3949;SDS011;53057;50.988;6.314;2024-03-23T10:52:45;8.43;;;3.20;;
3949;SDS011;53057;50.988;6.314;2024-03-23T10:55:11;14.73;;;2.60;;
3949;SDS011;53057;50.988;6.314;2024-03-23T10:57:43;8.33;;;2.67;;
3949;SDS011;53057;50.988;6.314;2024-03-23T11:00:10;7.87;;;2.47;;
3949;SDS011;53057;50.988;6.314;2024-03-23T11:02:38;16.10;;;2.70;;
3949;SDS011;53057;50.988;6.314;2024-03-23T11:07:51;4.03;;;1.93;;
3949;SDS011;53057;50.988;6.314;2024-03-23T11:12:51;5.43;;;1.23;;
3949;SDS011;53057;50.988;6.314;2024-03-23T11:15:17;3.77;;;1.40;;
3949;SDS011;53057;50.988;6.314;2024-03-23T11:17:43;4.00;;;1.33;;
3949;SDS011;53057;50.988;6.314;2024-03-23T11:20:32;4.20;;;1.87;;
3949;SDS011;53057;50.988;6.314;2024-03-23T11:22:59;6.93;;;2.30;;
3949;SDS011;53057;50.988;6.314;2024-03-23T11:25:25;4.37;;;1.70;;
3949;SDS011;53057;50.988;6.314;2024-03-23T11:27:53;6.80;;;2.27;;
3949;SDS011;53057;50.988;6.314;2024-03-23T11:30:20;5.30;;;2.33;;
3949;SDS011;53057;50.988;6.314;2024-03-23T11:32:50;7.00;;;2.27;;
3949;SDS011;53057;50.988;6.314;2024-03-23T11:35:26;4.37;;;2.33;;
3949;SDS011;53057;50.988;6.314;2024-03-23T11:38:11;5.57;;;2.43;;
3949;SDS011;53057;50.988;6.314;2024-03-23T11:40:42;4.30;;;1.90;;
3949;SDS011;53057;50.988;6.314;2024-03-23T11:43:18;3.80;;;2.23;;
3949;SDS011;53057;50.988;6.314;2024-03-23T11:45:48;6.27;;;1.83;;
3949;SDS011;53057;50.988;6.314;2024-03-23T11:48:18;1.60;;;1.10;;
3949;SDS011;53057;50.988;6.314;2024-03-23T11:50:47;4.33;;;1.20;;
3949;SDS011;53057;50.988;6.314;2024-03-23T11:55:50;11.83;;;1.73;;
3949;SDS011;53057;50.988;6.314;2024-03-23T11:58:17;6.27;;;1.27;;
3949;SDS011;53057;50.988;6.314;2024-03-23T12:01:02;2.00;;;1.30;;
3949;SDS011;53057;50.988;6.314;2024-03-23T12:03:28;4.73;;;1.20;;
3949;SDS011;53057;50.988;6.314;2024-03-23T12:05:55;1.77;;;1.03;;
3949;SDS011;53057;50.988;6.314;2024-03-23T12:08:22;4.20;;;1.27;;
3949;SDS011;53057;50.988;6.314;2024-03-23T12:10:53;3.83;;;1.67;;
3949;SDS011;53057;50.988;6.314;2024-03-23T12:13:20;4.33;;;1.50;;
3949;SDS011;53057;50.988;6.314;2024-03-23T12:15:48;4.93;;;1.10;;
3949;SDS011;53057;50.988;6.314;2024-03-23T12:21:09;12.63;;;2.13;;
3949;SDS011;53057;50.988;6.314;2024-03-23T12:26:50;5.20;;;1.60;;
3949;SDS011;53057;50.988;6.314;2024-03-23T12:29:17;3.83;;;1.87;;
3949;SDS011;53057;50.988;6.314;2024-03-23T12:31:51;1.77;;;1.50;;
3949;SDS011;53057;50.988;6.314;2024-03-23T12:34:17;3.43;;;1.20;;
3949;SDS011;53057;50.988;6.314;2024-03-23T12:36:43;4.47;;;1.50;;
3949;SDS011;53057;50.988;6.314;2024-03-23T12:39:09;4.10;;;1.80;;
3949;SDS011;53057;50.988;6.314;2024-03-23T12:41:36;7.30;;;2.83;;
3949;SDS011;53057;50.988;6.314;2024-03-23T12:44:02;9.77;;;4.33;;
3949;SDS011;53057;50.988;6.314;2024-03-23T12:46:28;23.20;;;8.13;;
3949;SDS011;53057;50.988;6.314;2024-03-23T12:48:55;6.00;;;2.43;;
3949;SDS011;53057;50.988;6.314;2024-03-23T12:51:22;4.73;;;2.00;;
3949;SDS011;53057;50.988;6.314;2024-03-23T12:53:48;6.27;;;2.63;;
3949;SDS011;53057;50.988;6.314;2024-03-23T12:56:14;14.63;;;3.70;;
3949;SDS011;53057;50.988;6.314;2024-03-23T12:58:41;12.70;;;2.50;;
3949;SDS011;53057;50.988;6.314;2024-03-23T13:01:07;6.13;;;2.37;;
3949;SDS011;53057;50.988;6.314;2024-03-23T13:03:33;9.10;;;2.80;;
3949;SDS011;53057;50.988;6.314;2024-03-23T13:05:59;4.20;;;1.87;;
3949;SDS011;53057;50.988;6.314;2024-03-23T13:08:26;3.00;;;1.17;;
3949;SDS011;53057;50.988;6.314;2024-03-23T13:10:53;3.47;;;1.40;;
3949;SDS011;53057;50.988;6.314;2024-03-23T13:13:19;5.60;;;1.40;;
3949;SDS011;53057;50.988;6.314;2024-03-23T13:15:51;3.03;;;1.93;;
3949;SDS011;53057;50.988;6.314;2024-03-23T13:18:17;4.53;;;2.73;;
3949;SDS011;53057;50.988;6.314;2024-03-23T13:20:43;4.57;;;1.60;;
3949;SDS011;53057;50.988;6.314;2024-03-23T13:23:09;9.63;;;2.17;;
3949;SDS011;53057;50.988;6.314;2024-03-23T13:25:35;1.90;;;1.33;;
3949;SDS011;53057;50.988;6.314;2024-03-23T13:28:03;3.70;;;2.27;;
3949;SDS011;53057;50.988;6.314;2024-03-23T13:30:30;3.80;;;2.27;;
3949;SDS011;53057;50.988;6.314;2024-03-23T13:32:56;4.97;;;3.27;;
3949;SDS011;53057;50.988;6.314;2024-03-23T13:35:23;5.20;;;1.87;;
3949;SDS011;53057;50.988;6.314;2024-03-23T13:37:49;5.23;;;3.60;;
3949;SDS011;53057;50.988;6.314;2024-03-23T13:40:15;5.53;;;2.67;;
3949;SDS011;53057;50.988;6.314;2024-03-23T13:42:41;21.00;;;3.50;;
3949;SDS011;53057;50.988;6.314;2024-03-23T13:45:08;5.30;;;2.87;;
3949;SDS011;53057;50.988;6.314;2024-03-23T13:47:43;10.70;;;2.67;;
3949;SDS011;53057;50.988;6.314;2024-03-23T13:50:09;11.30;;;6.20;;
3949;SDS011;53057;50.988;6.314;2024-03-23T13:52:36;4.90;;;2.40;;
3949;SDS011;53057;50.988;6.314;2024-03-23T13:55:03;5.50;;;2.90;;
3949;SDS011;53057;50.988;6.314;2024-03-23T13:57:30;5.80;;;4.03;;
3949;SDS011;53057;50.988;6.314;2024-03-23T13:59:56;4.63;;;1.80;;
3949;SDS011;53057;50.988;6.314;2024-03-23T14:02:23;6.50;;;3.23;;
3949;SDS011;53057;50.988;6.314;2024-03-23T14:04:50;7.80;;;2.20;;
3949;SDS011;53057;50.988;6.314;2024-03-23T14:07:17;8.83;;;3.17;;
3949;SDS011;53057;50.988;6.314;2024-03-23T14:09:44;4.23;;;1.70;;
3949;SDS011;53057;50.988;6.314;2024-03-23T14:12:10;15.33;;;3.77;;
3949;SDS011;53057;50.988;6.314;2024-03-23T14:14:36;4.23;;;2.27;;
3949;SDS011;53057;50.988;6.314;2024-03-23T14:17:02;10.17;;;2.53;;
3949;SDS011;53057;50.988;6.314;2024-03-23T14:19:28;5.07;;;2.33;;
3949;SDS011;53057;50.988;6.314;2024-03-23T14:21:54;2.73;;;1.83;;
3949;SDS011;53057;50.988;6.314;2024-03-23T14:24:20;5.47;;;2.70;;
3949;SDS011;53057;50.988;6.314;2024-03-23T14:26:46;5.03;;;2.60;;
3949;SDS011;53057;50.988;6.314;2024-03-23T14:29:12;11.83;;;3.27;;
3949;SDS011;53057;50.988;6.314;2024-03-23T14:31:38;12.77;;;3.97;;
3949;SDS011;53057;50.988;6.314;2024-03-23T14:34:04;5.07;;;2.60;;
3949;SDS011;53057;50.988;6.314;2024-03-23T14:36:30;10.17;;;6.70;;
3949;SDS011;53057;50.988;6.314;2024-03-23T14:38:57;7.50;;;4.77;;
3949;SDS011;53057;50.988;6.314;2024-03-23T14:41:34;9.20;;;6.33;;
3949;SDS011;53057;50.988;6.314;2024-03-23T14:44:12;4.40;;;2.97;;
3949;SDS011;53057;50.988;6.314;2024-03-23T14:46:49;4.50;;;2.80;;
3949;SDS011;53057;50.988;6.314;2024-03-23T14:49:18;8.30;;;3.23;;
3949;SDS011;53057;50.988;6.314;2024-03-23T14:51:57;5.63;;;3.90;;
3949;SDS011;53057;50.988;6.314;2024-03-23T14:54:26;7.83;;;3.30;;
3949;SDS011;53057;50.988;6.314;2024-03-23T14:56:52;5.60;;;4.00;;
3949;SDS011;53057;50.988;6.314;2024-03-23T14:59:18;9.47;;;5.47;;
3949;SDS011;53057;50.988;6.314;2024-03-23T15:01:45;8.20;;;4.70;;
3949;SDS011;53057;50.988;6.314;2024-03-23T15:04:11;4.40;;;2.60;;
3949;SDS011;53057;50.988;6.314;2024-03-23T15:06:36;3.97;;;2.60;;
3949;SDS011;53057;50.988;6.314;2024-03-23T15:09:02;3.67;;;2.90;;
3949;SDS011;53057;50.988;6.314;2024-03-23T15:11:33;6.33;;;3.20;;
3949;SDS011;53057;50.988;6.314;2024-03-23T15:13:58;8.20;;;3.87;;
3949;SDS011;53057;50.988;6.314;2024-03-23T15:16:24;3.80;;;1.87;;
3949;SDS011;53057;50.988;6.314;2024-03-23T15:18:51;6.13;;;2.00;;
3949;SDS011;53057;50.988;6.314;2024-03-23T15:21:16;2.50;;;1.80;;
3949;SDS011;53057;50.988;6.314;2024-03-23T15:23:47;5.90;;;2.33;;
3949;SDS011;53057;50.988;6.314;2024-03-23T15:26:13;8.53;;;1.90;;
3949;SDS011;53057;50.988;6.314;2024-03-23T15:28:39;5.03;;;2.13;;
3949;SDS011;53057;50.988;6.314;2024-03-23T15:31:23;4.17;;;2.60;;
3949;SDS011;53057;50.988;6.314;2024-03-23T15:33:50;3.43;;;2.30;;
3949;SDS011;53057;50.988;6.314;2024-03-23T15:36:16;3.20;;;1.67;;
3949;SDS011;53057;50.988;6.314;2024-03-23T15:38:42;4.83;;;2.10;;
3949;SDS011;53057;50.988;6.314;2024-03-23T15:41:09;4.70;;;2.53;;
3949;SDS011;53057;50.988;6.314;2024-03-23T15:43:35;13.03;;;3.30;;
3949;SDS011;53057;50.988;6.314;2024-03-23T15:46:02;9.00;;;6.23;;
3949;SDS011;53057;50.988;6.314;2024-03-23T15:48:28;17.00;;;10.40;;
3949;SDS011;53057;50.988;6.314;2024-03-23T15:50:54;7.30;;;3.20;;
3949;SDS011;53057;50.988;6.314;2024-03-23T15:53:21;4.60;;;4.07;;
3949;SDS011;53057;50.988;6.314;2024-03-23T15:55:53;4.73;;;2.77;;
3949;SDS011;53057;50.988;6.314;2024-03-23T15:58:20;6.07;;;2.00;;
3949;SDS011;53057;50.988;6.314;2024-03-23T16:00:53;3.87;;;2.20;;
3949;SDS011;53057;50.988;6.314;2024-03-23T16:03:19;9.90;;;2.83;;
3949;SDS011;53057;50.988;6.314;2024-03-23T16:05:51;3.40;;;1.73;;
3949;SDS011;53057;50.988;6.314;2024-03-23T16:08:17;8.50;;;1.80;;
3949;SDS011;53057;50.988;6.314;2024-03-23T16:10:43;7.50;;;4.00;;
3949;SDS011;53057;50.988;6.314;2024-03-23T16:13:09;13.00;;;6.07;;
3949;SDS011;53057;50.988;6.314;2024-03-23T16:15:35;14.93;;;6.00;;
3949;SDS011;53057;50.988;6.314;2024-03-23T16:18:01;11.73;;;7.27;;
3949;SDS011;53057;50.988;6.314;2024-03-23T16:20:27;5.93;;;2.47;;
3949;SDS011;53057;50.988;6.314;2024-03-23T16:22:52;9.33;;;3.03;;
3949;SDS011;53057;50.988;6.314;2024-03-23T16:25:18;15.20;;;3.83;;
3949;SDS011;53057;50.988;6.314;2024-03-23T16:27:44;23.33;;;5.47;;
3949;SDS011;53057;50.988;6.314;2024-03-23T16:30:11;7.37;;;3.20;;
3949;SDS011;53057;50.988;6.314;2024-03-23T16:32:37;3.23;;;1.83;;
3949;SDS011;53057;50.988;6.314;2024-03-23T16:35:04;5.57;;;2.00;;
3949;SDS011;53057;50.988;6.314;2024-03-23T16:37:30;3.90;;;1.93;;
3949;SDS011;53057;50.988;6.314;2024-03-23T16:39:56;8.40;;;2.50;;
3949;SDS011;53057;50.988;6.314;2024-03-23T16:42:22;6.27;;;2.80;;
3949;SDS011;53057;50.988;6.314;2024-03-23T16:44:48;3.00;;;2.33;;
3949;SDS011;53057;50.988;6.314;2024-03-23T16:47:14;5.43;;;2.37;;
3949;SDS011;53057;50.988;6.314;2024-03-23T16:49:40;5.33;;;3.03;;
3949;SDS011;53057;50.988;6.314;2024-03-23T16:52:06;5.30;;;3.20;;
3949;SDS011;53057;50.988;6.314;2024-03-23T16:54:35;8.70;;;3.07;;
3949;SDS011;53057;50.988;6.314;2024-03-23T16:57:01;12.13;;;4.00;;
3949;SDS011;53057;50.988;6.314;2024-03-23T16:59:27;6.63;;;4.17;;
3949;SDS011;53057;50.988;6.314;2024-03-23T17:01:53;9.03;;;4.20;;
3949;SDS011;53057;50.988;6.314;2024-03-23T17:04:21;8.50;;;4.20;;
3949;SDS011;53057;50.988;6.314;2024-03-23T17:06:48;9.10;;;4.20;;
3949;SDS011;53057;50.988;6.314;2024-03-23T17:09:14;5.93;;;3.23;;
3949;SDS011;53057;50.988;6.314;2024-03-23T17:11:42;7.63;;;4.30;;
3949;SDS011;53057;50.988;6.314;2024-03-23T17:14:09;8.23;;;4.20;;
3949;SDS011;53057;50.988;6.314;2024-03-23T17:16:35;6.60;;;3.33;;
3949;SDS011;53057;50.988;6.314;2024-03-23T17:19:01;7.47;;;3.97;;
3949;SDS011;53057;50.988;6.314;2024-03-23T17:21:27;4.87;;;4.17;;
3949;SDS011;53057;50.988;6.314;2024-03-23T17:23:53;10.20;;;4.13;;
3949;SDS011;53057;50.988;6.314;2024-03-23T17:26:23;16.27;;;6.10;;
3949;SDS011;53057;50.988;6.314;2024-03-23T17:28:49;5.17;;;3.93;;
3949;SDS011;53057;50.988;6.314;2024-03-23T17:31:18;11.83;;;4.57;;
3949;SDS011;53057;50.988;6.314;2024-03-23T17:33:45;19.13;;;6.03;;